sensor_id;sensor_type;location;lat;lon;timestamp;P1;durP1;ratioP1;P2;durP2;ratioP2
51862;SDS011;37900;52.996;6.278;2024-01-10T00:01:59;2.70;;;1.33;;
51862;SDS011;37900;52.996;6.278;2024-01-10T00:04:25;2.50;;;1.40;;
51862;SDS011;37900;52.996;6.278;2024-01-10T00:06:51;3.13;;;1.65;;
51862;SDS011;37900;52.996;6.278;2024-01-10T00:09:16;3.20;;;1.48;;
51862;SDS011;37900;52.996;6.278;2024-01-10T00:11:42;2.28;;;1.40;;
51862;SDS011;37900;52.996;6.278;2024-01-10T00:14:08;1.77;;;1.20;;
51862;SDS011;37900;52.996;6.278;2024-01-10T00:16:34;2.97;;;1.63;;
51862;SDS011;37900;52.996;6.278;2024-01-10T00:19:00;1.35;;;1.20;;
51862;SDS011;37900;52.996;6.278;2024-01-10T00:21:26;2.30;;;1.50;;
51862;SDS011;37900;52.996;6.278;2024-01-10T00:23:52;3.00;;;1.42;;
51862;SDS011;37900;52.996;6.278;2024-01-10T00:26:17;2.53;;;1.65;;
51862;SDS011;37900;52.996;6.278;2024-01-10T00:28:43;3.38;;;1.65;;
51862;SDS011;37900;52.996;6.278;2024-01-10T00:31:12;1.95;;;1.45;;
51862;SDS011;37900;52.996;6.278;2024-01-10T00:33:39;2.08;;;1.40;;
51862;SDS011;37900;52.996;6.278;2024-01-10T00:36:05;1.50;;;1.27;;
51862;SDS011;37900;52.996;6.278;2024-01-10T00:38:31;1.80;;;1.42;;
51862;SDS011;37900;52.996;6.278;2024-01-10T00:40:57;2.17;;;1.15;;
51862;SDS011;37900;52.996;6.278;2024-01-10T00:43:23;2.03;;;1.40;;
51862;SDS011;37900;52.996;6.278;2024-01-10T00:45:49;2.33;;;1.40;;
51862;SDS011;37900;52.996;6.278;2024-01-10T00:48:14;2.15;;;1.50;;
51862;SDS011;37900;52.996;6.278;2024-01-10T00:50:43;1.65;;;1.35;;
51862;SDS011;37900;52.996;6.278;2024-01-10T00:53:11;3.45;;;1.35;;
51862;SDS011;37900;52.996;6.278;2024-01-10T00:55:37;2.33;;;1.40;;
51862;SDS011;37900;52.996;6.278;2024-01-10T00:58:03;2.25;;;1.60;;
51862;SDS011;37900;52.996;6.278;2024-01-10T01:00:28;1.77;;;1.50;;
51862;SDS011;37900;52.996;6.278;2024-01-10T01:02:54;1.95;;;1.60;;
51862;SDS011;37900;52.996;6.278;2024-01-10T01:05:20;3.95;;;1.60;;
51862;SDS011;37900;52.996;6.278;2024-01-10T01:07:45;1.73;;;1.33;;
51862;SDS011;37900;52.996;6.278;2024-01-10T01:10:11;2.10;;;1.48;;
51862;SDS011;37900;52.996;6.278;2024-01-10T01:12:37;3.30;;;1.58;;
51862;SDS011;37900;52.996;6.278;2024-01-10T01:15:04;2.95;;;1.55;;
51862;SDS011;37900;52.996;6.278;2024-01-10T01:17:30;1.52;;;1.30;;
51862;SDS011;37900;52.996;6.278;2024-01-10T01:19:56;3.35;;;1.60;;
51862;SDS011;37900;52.996;6.278;2024-01-10T01:22:21;1.95;;;1.50;;
51862;SDS011;37900;52.996;6.278;2024-01-10T01:24:47;4.10;;;2.08;;
51862;SDS011;37900;52.996;6.278;2024-01-10T01:27:13;2.20;;;1.65;;
51862;SDS011;37900;52.996;6.278;2024-01-10T01:29:38;2.50;;;1.65;;
51862;SDS011;37900;52.996;6.278;2024-01-10T01:32:04;2.75;;;1.40;;
51862;SDS011;37900;52.996;6.278;2024-01-10T01:34:30;2.10;;;1.33;;
51862;SDS011;37900;52.996;6.278;2024-01-10T01:36:56;1.92;;;1.50;;
51862;SDS011;37900;52.996;6.278;2024-01-10T01:39:21;1.88;;;1.42;;
51862;SDS011;37900;52.996;6.278;2024-01-10T01:41:47;1.65;;;1.48;;
51862;SDS011;37900;52.996;6.278;2024-01-10T01:44:13;1.50;;;1.40;;
51862;SDS011;37900;52.996;6.278;2024-01-10T01:46:39;2.25;;;1.65;;
51862;SDS011;37900;52.996;6.278;2024-01-10T01:49:08;1.30;;;1.20;;
51862;SDS011;37900;52.996;6.278;2024-01-10T01:51:35;1.50;;;1.40;;
51862;SDS011;37900;52.996;6.278;2024-01-10T01:54:05;4.22;;;1.40;;
51862;SDS011;37900;52.996;6.278;2024-01-10T01:56:36;1.63;;;1.25;;
51862;SDS011;37900;52.996;6.278;2024-01-10T01:59:06;2.53;;;1.50;;
51862;SDS011;37900;52.996;6.278;2024-01-10T02:01:33;1.77;;;1.30;;
51862;SDS011;37900;52.996;6.278;2024-01-10T02:04:00;1.88;;;1.30;;
51862;SDS011;37900;52.996;6.278;2024-01-10T02:06:28;2.35;;;1.75;;
51862;SDS011;37900;52.996;6.278;2024-01-10T02:08:55;1.33;;;1.23;;
51862;SDS011;37900;52.996;6.278;2024-01-10T02:11:21;1.65;;;1.30;;
51862;SDS011;37900;52.996;6.278;2024-01-10T02:13:48;2.50;;;1.65;;
51862;SDS011;37900;52.996;6.278;2024-01-10T02:16:14;2.85;;;1.48;;
51862;SDS011;37900;52.996;6.278;2024-01-10T02:18:40;1.42;;;1.30;;
51862;SDS011;37900;52.996;6.278;2024-01-10T02:21:06;2.13;;;1.50;;
51862;SDS011;37900;52.996;6.278;2024-01-10T02:23:32;2.17;;;1.30;;
51862;SDS011;37900;52.996;6.278;2024-01-10T02:25:57;2.33;;;1.67;;
51862;SDS011;37900;52.996;6.278;2024-01-10T02:28:23;2.50;;;1.65;;
51862;SDS011;37900;52.996;6.278;2024-01-10T02:30:52;1.38;;;1.27;;
51862;SDS011;37900;52.996;6.278;2024-01-10T02:33:19;1.92;;;1.70;;
51862;SDS011;37900;52.996;6.278;2024-01-10T02:35:45;1.95;;;1.50;;
51862;SDS011;37900;52.996;6.278;2024-01-10T02:38:11;2.03;;;1.55;;
51862;SDS011;37900;52.996;6.278;2024-01-10T02:40:36;1.45;;;1.20;;
51862;SDS011;37900;52.996;6.278;2024-01-10T02:43:02;2.22;;;1.58;;
51862;SDS011;37900;52.996;6.278;2024-01-10T02:45:28;3.20;;;1.80;;
51862;SDS011;37900;52.996;6.278;2024-01-10T02:47:54;2.35;;;1.67;;
51862;SDS011;37900;52.996;6.278;2024-01-10T02:50:19;3.00;;;1.63;;
51862;SDS011;37900;52.996;6.278;2024-01-10T02:52:45;1.75;;;1.45;;
51862;SDS011;37900;52.996;6.278;2024-01-10T02:55:11;2.15;;;1.63;;
51862;SDS011;37900;52.996;6.278;2024-01-10T02:57:36;2.60;;;1.63;;
51862;SDS011;37900;52.996;6.278;2024-01-10T03:00:02;1.63;;;1.25;;
51862;SDS011;37900;52.996;6.278;2024-01-10T03:02:30;1.98;;;1.60;;
51862;SDS011;37900;52.996;6.278;2024-01-10T03:04:56;2.30;;;1.75;;
51862;SDS011;37900;52.996;6.278;2024-01-10T03:07:22;1.60;;;1.50;;
51862;SDS011;37900;52.996;6.278;2024-01-10T03:09:50;2.67;;;1.60;;
51862;SDS011;37900;52.996;6.278;2024-01-10T03:12:15;2.35;;;1.63;;
51862;SDS011;37900;52.996;6.278;2024-01-10T03:14:42;2.92;;;1.60;;
51862;SDS011;37900;52.996;6.278;2024-01-10T03:17:07;3.08;;;1.63;;
51862;SDS011;37900;52.996;6.278;2024-01-10T03:19:33;2.25;;;1.40;;
51862;SDS011;37900;52.996;6.278;2024-01-10T03:21:59;2.85;;;1.77;;
51862;SDS011;37900;52.996;6.278;2024-01-10T03:24:24;1.48;;;1.38;;
51862;SDS011;37900;52.996;6.278;2024-01-10T03:26:52;3.10;;;1.40;;
51862;SDS011;37900;52.996;6.278;2024-01-10T03:29:18;1.75;;;1.40;;
51862;SDS011;37900;52.996;6.278;2024-01-10T03:31:43;2.28;;;1.45;;
51862;SDS011;37900;52.996;6.278;2024-01-10T03:34:09;1.88;;;1.50;;
51862;SDS011;37900;52.996;6.278;2024-01-10T03:36:34;2.47;;;1.30;;
51862;SDS011;37900;52.996;6.278;2024-01-10T03:39:00;1.80;;;1.40;;
51862;SDS011;37900;52.996;6.278;2024-01-10T03:41:26;2.75;;;1.65;;
51862;SDS011;37900;52.996;6.278;2024-01-10T03:43:52;2.13;;;1.42;;
51862;SDS011;37900;52.996;6.278;2024-01-10T03:46:18;1.83;;;1.48;;
51862;SDS011;37900;52.996;6.278;2024-01-10T03:48:43;2.55;;;1.80;;
51862;SDS011;37900;52.996;6.278;2024-01-10T03:51:17;2.58;;;1.75;;
51862;SDS011;37900;52.996;6.278;2024-01-10T03:53:43;2.13;;;1.40;;
51862;SDS011;37900;52.996;6.278;2024-01-10T03:56:10;2.17;;;1.52;;
51862;SDS011;37900;52.996;6.278;2024-01-10T03:58:37;1.85;;;1.63;;
51862;SDS011;37900;52.996;6.278;2024-01-10T04:01:06;2.13;;;1.58;;
51862;SDS011;37900;52.996;6.278;2024-01-10T04:03:32;1.63;;;1.17;;
51862;SDS011;37900;52.996;6.278;2024-01-10T04:05:59;1.83;;;1.63;;
51862;SDS011;37900;52.996;6.278;2024-01-10T04:08:26;1.48;;;1.38;;
51862;SDS011;37900;52.996;6.278;2024-01-10T04:10:51;2.38;;;1.42;;
51862;SDS011;37900;52.996;6.278;2024-01-10T04:13:17;2.30;;;1.55;;
51862;SDS011;37900;52.996;6.278;2024-01-10T04:15:43;2.08;;;1.50;;
51862;SDS011;37900;52.996;6.278;2024-01-10T04:18:08;2.72;;;1.40;;
51862;SDS011;37900;52.996;6.278;2024-01-10T04:20:34;2.80;;;1.55;;
51862;SDS011;37900;52.996;6.278;2024-01-10T04:23:00;2.53;;;1.55;;
51862;SDS011;37900;52.996;6.278;2024-01-10T04:25:26;1.95;;;1.58;;
51862;SDS011;37900;52.996;6.278;2024-01-10T04:27:51;1.60;;;1.50;;
51862;SDS011;37900;52.996;6.278;2024-01-10T04:30:17;1.50;;;1.40;;
51862;SDS011;37900;52.996;6.278;2024-01-10T04:32:43;1.65;;;1.30;;
51862;SDS011;37900;52.996;6.278;2024-01-10T04:35:09;2.00;;;1.60;;
51862;SDS011;37900;52.996;6.278;2024-01-10T04:37:35;1.52;;;1.30;;
51862;SDS011;37900;52.996;6.278;2024-01-10T04:40:00;1.80;;;1.35;;
51862;SDS011;37900;52.996;6.278;2024-01-10T04:42:26;1.83;;;1.55;;
51862;SDS011;37900;52.996;6.278;2024-01-10T04:44:52;2.47;;;1.60;;
51862;SDS011;37900;52.996;6.278;2024-01-10T04:47:18;1.88;;;1.38;;
51862;SDS011;37900;52.996;6.278;2024-01-10T04:49:44;2.72;;;1.55;;
51862;SDS011;37900;52.996;6.278;2024-01-10T04:52:09;2.22;;;1.70;;
51862;SDS011;37900;52.996;6.278;2024-01-10T04:54:35;2.63;;;1.63;;
51862;SDS011;37900;52.996;6.278;2024-01-10T04:57:00;2.25;;;1.58;;
51862;SDS011;37900;52.996;6.278;2024-01-10T04:59:26;1.98;;;1.70;;
51862;SDS011;37900;52.996;6.278;2024-01-10T05:01:52;2.30;;;1.50;;
51862;SDS011;37900;52.996;6.278;2024-01-10T05:04:18;1.98;;;1.73;;
51862;SDS011;37900;52.996;6.278;2024-01-10T05:06:44;2.20;;;1.60;;
51862;SDS011;37900;52.996;6.278;2024-01-10T05:09:10;2.28;;;1.52;;
51862;SDS011;37900;52.996;6.278;2024-01-10T05:11:35;2.45;;;1.38;;
51862;SDS011;37900;52.996;6.278;2024-01-10T05:14:02;2.08;;;1.45;;
51862;SDS011;37900;52.996;6.278;2024-01-10T05:16:28;2.13;;;1.50;;
51862;SDS011;37900;52.996;6.278;2024-01-10T05:18:54;2.65;;;1.27;;
51862;SDS011;37900;52.996;6.278;2024-01-10T05:21:19;1.98;;;1.50;;
51862;SDS011;37900;52.996;6.278;2024-01-10T05:23:46;1.73;;;1.48;;
51862;SDS011;37900;52.996;6.278;2024-01-10T05:26:11;2.30;;;1.70;;
51862;SDS011;37900;52.996;6.278;2024-01-10T05:28:37;1.77;;;1.42;;
51862;SDS011;37900;52.996;6.278;2024-01-10T05:31:03;2.03;;;1.83;;
51862;SDS011;37900;52.996;6.278;2024-01-10T05:33:29;1.77;;;1.52;;
51862;SDS011;37900;52.996;6.278;2024-01-10T05:35:56;2.08;;;1.50;;
51862;SDS011;37900;52.996;6.278;2024-01-10T05:40:49;2.80;;;1.52;;
51862;SDS011;37900;52.996;6.278;2024-01-10T05:43:14;1.48;;;1.38;;
51862;SDS011;37900;52.996;6.278;2024-01-10T05:45:40;1.45;;;1.35;;
51862;SDS011;37900;52.996;6.278;2024-01-10T05:48:06;1.70;;;1.50;;
51862;SDS011;37900;52.996;6.278;2024-01-10T05:50:32;1.55;;;1.35;;
51862;SDS011;37900;52.996;6.278;2024-01-10T05:52:58;1.70;;;1.23;;
51862;SDS011;37900;52.996;6.278;2024-01-10T05:55:23;1.95;;;1.55;;
51862;SDS011;37900;52.996;6.278;2024-01-10T05:57:49;1.30;;;1.20;;
51862;SDS011;37900;52.996;6.278;2024-01-10T06:00:15;2.25;;;1.88;;
51862;SDS011;37900;52.996;6.278;2024-01-10T06:02:42;3.17;;;2.08;;
51862;SDS011;37900;52.996;6.278;2024-01-10T06:05:08;2.05;;;1.60;;
51862;SDS011;37900;52.996;6.278;2024-01-10T06:07:35;1.95;;;1.70;;
51862;SDS011;37900;52.996;6.278;2024-01-10T06:10:04;1.50;;;1.40;;
51862;SDS011;37900;52.996;6.278;2024-01-10T06:12:31;2.10;;;1.60;;
51862;SDS011;37900;52.996;6.278;2024-01-10T06:14:57;2.03;;;1.40;;
51862;SDS011;37900;52.996;6.278;2024-01-10T06:17:23;1.77;;;1.50;;
51862;SDS011;37900;52.996;6.278;2024-01-10T06:19:49;1.60;;;1.35;;
51862;SDS011;37900;52.996;6.278;2024-01-10T06:22:15;2.03;;;1.50;;
51862;SDS011;37900;52.996;6.278;2024-01-10T06:24:41;1.20;;;1.10;;
51862;SDS011;37900;52.996;6.278;2024-01-10T06:27:07;2.60;;;1.73;;
51862;SDS011;37900;52.996;6.278;2024-01-10T06:29:34;1.80;;;1.50;;
51862;SDS011;37900;52.996;6.278;2024-01-10T06:32:00;1.88;;;1.60;;
51862;SDS011;37900;52.996;6.278;2024-01-10T06:34:26;1.80;;;1.48;;
51862;SDS011;37900;52.996;6.278;2024-01-10T06:36:52;1.67;;;1.45;;
51862;SDS011;37900;52.996;6.278;2024-01-10T06:39:18;1.77;;;1.40;;
51862;SDS011;37900;52.996;6.278;2024-01-10T06:41:48;2.20;;;1.60;;
51862;SDS011;37900;52.996;6.278;2024-01-10T06:44:14;1.88;;;1.58;;
51862;SDS011;37900;52.996;6.278;2024-01-10T06:46:43;1.95;;;1.52;;
51862;SDS011;37900;52.996;6.278;2024-01-10T06:49:09;2.63;;;1.67;;
51862;SDS011;37900;52.996;6.278;2024-01-10T06:51:35;1.67;;;1.40;;
51862;SDS011;37900;52.996;6.278;2024-01-10T06:54:00;2.35;;;1.65;;
51862;SDS011;37900;52.996;6.278;2024-01-10T06:56:32;1.73;;;1.48;;
51862;SDS011;37900;52.996;6.278;2024-01-10T06:58:58;1.73;;;1.63;;
51862;SDS011;37900;52.996;6.278;2024-01-10T07:01:25;2.25;;;1.70;;
51862;SDS011;37900;52.996;6.278;2024-01-10T07:03:52;1.83;;;1.50;;
51862;SDS011;37900;52.996;6.278;2024-01-10T07:06:19;2.42;;;1.75;;
51862;SDS011;37900;52.996;6.278;2024-01-10T07:08:47;2.92;;;1.85;;
51862;SDS011;37900;52.996;6.278;2024-01-10T07:11:14;1.65;;;1.52;;
51862;SDS011;37900;52.996;6.278;2024-01-10T07:13:44;2.53;;;1.83;;
51862;SDS011;37900;52.996;6.278;2024-01-10T07:16:10;2.30;;;1.83;;
51862;SDS011;37900;52.996;6.278;2024-01-10T07:18:36;2.00;;;1.80;;
51862;SDS011;37900;52.996;6.278;2024-01-10T07:21:02;1.88;;;1.70;;
51862;SDS011;37900;52.996;6.278;2024-01-10T07:23:28;2.25;;;1.63;;
51862;SDS011;37900;52.996;6.278;2024-01-10T07:25:54;2.00;;;1.70;;
51862;SDS011;37900;52.996;6.278;2024-01-10T07:28:20;2.83;;;1.90;;
51862;SDS011;37900;52.996;6.278;2024-01-10T07:30:47;2.03;;;1.65;;
51862;SDS011;37900;52.996;6.278;2024-01-10T07:35:39;2.28;;;1.85;;
51862;SDS011;37900;52.996;6.278;2024-01-10T07:38:05;2.25;;;1.30;;
51862;SDS011;37900;52.996;6.278;2024-01-10T07:40:34;1.67;;;1.52;;
51862;SDS011;37900;52.996;6.278;2024-01-10T07:43:00;2.40;;;1.87;;
51862;SDS011;37900;52.996;6.278;2024-01-10T07:45:26;1.63;;;1.48;;
51862;SDS011;37900;52.996;6.278;2024-01-10T07:47:52;2.03;;;1.70;;
51862;SDS011;37900;52.996;6.278;2024-01-10T07:50:18;1.85;;;1.65;;
51862;SDS011;37900;52.996;6.278;2024-01-10T07:52:44;3.37;;;1.80;;
51862;SDS011;37900;52.996;6.278;2024-01-10T07:55:11;2.07;;;1.70;;
51862;SDS011;37900;52.996;6.278;2024-01-10T07:57:38;2.57;;;2.00;;
51862;SDS011;37900;52.996;6.278;2024-01-10T08:00:05;2.03;;;1.70;;
51862;SDS011;37900;52.996;6.278;2024-01-10T08:02:35;1.70;;;1.48;;
51862;SDS011;37900;52.996;6.278;2024-01-10T08:05:04;2.20;;;1.75;;
51862;SDS011;37900;52.996;6.278;2024-01-10T08:07:33;2.05;;;1.70;;
51862;SDS011;37900;52.996;6.278;2024-01-10T08:10:00;2.35;;;1.60;;
51862;SDS011;37900;52.996;6.278;2024-01-10T08:12:25;2.55;;;1.80;;
51862;SDS011;37900;52.996;6.278;2024-01-10T08:14:51;2.15;;;1.70;;
51862;SDS011;37900;52.996;6.278;2024-01-10T08:17:17;2.10;;;1.90;;
51862;SDS011;37900;52.996;6.278;2024-01-10T08:19:43;2.17;;;1.80;;
51862;SDS011;37900;52.996;6.278;2024-01-10T08:22:08;1.60;;;1.50;;
51862;SDS011;37900;52.996;6.278;2024-01-10T08:24:34;3.83;;;2.25;;
51862;SDS011;37900;52.996;6.278;2024-01-10T08:27:00;3.05;;;1.83;;
51862;SDS011;37900;52.996;6.278;2024-01-10T08:29:25;2.00;;;1.80;;
51862;SDS011;37900;52.996;6.278;2024-01-10T08:31:56;2.00;;;1.55;;
51862;SDS011;37900;52.996;6.278;2024-01-10T08:34:22;3.65;;;2.20;;
51862;SDS011;37900;52.996;6.278;2024-01-10T08:36:49;2.67;;;1.63;;
51862;SDS011;37900;52.996;6.278;2024-01-10T08:39:18;2.40;;;1.85;;
51862;SDS011;37900;52.996;6.278;2024-01-10T08:41:44;1.95;;;1.60;;
51862;SDS011;37900;52.996;6.278;2024-01-10T08:44:10;2.20;;;1.73;;
51862;SDS011;37900;52.996;6.278;2024-01-10T08:46:36;2.55;;;1.83;;
51862;SDS011;37900;52.996;6.278;2024-01-10T08:49:02;1.90;;;1.70;;
51862;SDS011;37900;52.996;6.278;2024-01-10T08:51:28;2.30;;;1.58;;
51862;SDS011;37900;52.996;6.278;2024-01-10T08:53:54;3.53;;;1.80;;
51862;SDS011;37900;52.996;6.278;2024-01-10T08:56:20;3.70;;;2.10;;
51862;SDS011;37900;52.996;6.278;2024-01-10T08:58:46;2.97;;;1.90;;
51862;SDS011;37900;52.996;6.278;2024-01-10T09:01:12;2.67;;;1.80;;
51862;SDS011;37900;52.996;6.278;2024-01-10T09:03:37;3.35;;;2.03;;
51862;SDS011;37900;52.996;6.278;2024-01-10T09:06:04;2.38;;;2.05;;
51862;SDS011;37900;52.996;6.278;2024-01-10T09:08:33;2.20;;;1.70;;
51862;SDS011;37900;52.996;6.278;2024-01-10T09:10:59;2.70;;;1.60;;
51862;SDS011;37900;52.996;6.278;2024-01-10T09:13:25;2.15;;;1.90;;
51862;SDS011;37900;52.996;6.278;2024-01-10T09:15:51;2.00;;;1.80;;
51862;SDS011;37900;52.996;6.278;2024-01-10T09:18:17;2.83;;;2.50;;
51862;SDS011;37900;52.996;6.278;2024-01-10T09:20:42;4.40;;;2.80;;
51862;SDS011;37900;52.996;6.278;2024-01-10T09:23:08;8.45;;;4.47;;
51862;SDS011;37900;52.996;6.278;2024-01-10T09:25:35;8.18;;;4.38;;
51862;SDS011;37900;52.996;6.278;2024-01-10T09:28:01;7.78;;;4.25;;
51862;SDS011;37900;52.996;6.278;2024-01-10T09:30:27;7.30;;;4.75;;
51862;SDS011;37900;52.996;6.278;2024-01-10T09:32:52;7.47;;;3.95;;
51862;SDS011;37900;52.996;6.278;2024-01-10T09:35:18;4.97;;;3.85;;
51862;SDS011;37900;52.996;6.278;2024-01-10T09:37:44;7.70;;;3.80;;
51862;SDS011;37900;52.996;6.278;2024-01-10T09:40:10;6.18;;;4.22;;
51862;SDS011;37900;52.996;6.278;2024-01-10T09:42:39;6.40;;;4.00;;
51862;SDS011;37900;52.996;6.278;2024-01-10T09:45:05;6.82;;;3.85;;
51862;SDS011;37900;52.996;6.278;2024-01-10T09:47:33;5.75;;;3.83;;
51862;SDS011;37900;52.996;6.278;2024-01-10T09:50:01;5.75;;;3.80;;
51862;SDS011;37900;52.996;6.278;2024-01-10T09:52:29;5.30;;;3.50;;
51862;SDS011;37900;52.996;6.278;2024-01-10T09:55:03;6.20;;;3.83;;
51862;SDS011;37900;52.996;6.278;2024-01-10T09:57:29;4.37;;;3.30;;
51862;SDS011;37900;52.996;6.278;2024-01-10T09:59:56;6.10;;;3.88;;
51862;SDS011;37900;52.996;6.278;2024-01-10T10:02:22;6.28;;;3.92;;
51862;SDS011;37900;52.996;6.278;2024-01-10T10:05:21;6.28;;;3.45;;
51862;SDS011;37900;52.996;6.278;2024-01-10T10:10:10;5.80;;;3.13;;
51862;SDS011;37900;52.996;6.278;2024-01-10T10:15:14;5.28;;;3.53;;
51862;SDS011;37900;52.996;6.278;2024-01-10T10:17:42;4.85;;;2.78;;
51862;SDS011;37900;52.996;6.278;2024-01-10T10:22:58;5.40;;;3.45;;
51862;SDS011;37900;52.996;6.278;2024-01-10T10:25:29;5.88;;;3.40;;
51862;SDS011;37900;52.996;6.278;2024-01-10T10:27:57;4.28;;;3.10;;
51862;SDS011;37900;52.996;6.278;2024-01-10T10:30:23;4.90;;;3.08;;
51862;SDS011;37900;52.996;6.278;2024-01-10T10:32:49;5.53;;;3.33;;
51862;SDS011;37900;52.996;6.278;2024-01-10T10:35:15;5.55;;;3.58;;
51862;SDS011;37900;52.996;6.278;2024-01-10T10:37:43;4.00;;;2.72;;
51862;SDS011;37900;52.996;6.278;2024-01-10T10:40:09;3.88;;;2.65;;
51862;SDS011;37900;52.996;6.278;2024-01-10T10:42:37;3.83;;;2.70;;
51862;SDS011;37900;52.996;6.278;2024-01-10T10:45:11;3.25;;;2.50;;
51862;SDS011;37900;52.996;6.278;2024-01-10T10:47:45;6.30;;;3.45;;
51862;SDS011;37900;52.996;6.278;2024-01-10T10:50:18;4.45;;;3.08;;
51862;SDS011;37900;52.996;6.278;2024-01-10T10:52:50;4.85;;;3.05;;
51862;SDS011;37900;52.996;6.278;2024-01-10T10:55:16;2.92;;;2.53;;
51862;SDS011;37900;52.996;6.278;2024-01-10T10:57:46;4.72;;;3.00;;
51862;SDS011;37900;52.996;6.278;2024-01-10T11:00:16;4.15;;;2.63;;
51862;SDS011;37900;52.996;6.278;2024-01-10T11:02:45;4.53;;;2.90;;
51862;SDS011;37900;52.996;6.278;2024-01-10T11:05:11;4.55;;;2.97;;
51862;SDS011;37900;52.996;6.278;2024-01-10T11:07:38;4.63;;;2.67;;
51862;SDS011;37900;52.996;6.278;2024-01-10T11:10:14;4.80;;;3.03;;
51862;SDS011;37900;52.996;6.278;2024-01-10T11:23:50;4.00;;;2.67;;
51862;SDS011;37900;52.996;6.278;2024-01-10T11:26:21;4.55;;;3.03;;
51862;SDS011;37900;52.996;6.278;2024-01-10T11:28:47;3.95;;;2.03;;
51862;SDS011;37900;52.996;6.278;2024-01-10T11:31:14;3.77;;;2.33;;
51862;SDS011;37900;52.996;6.278;2024-01-10T11:33:42;3.55;;;2.95;;
51862;SDS011;37900;52.996;6.278;2024-01-10T11:36:19;4.20;;;2.80;;
51862;SDS011;37900;52.996;6.278;2024-01-10T11:41:30;5.18;;;2.42;;
51862;SDS011;37900;52.996;6.278;2024-01-10T11:46:37;3.25;;;2.20;;
51862;SDS011;37900;52.996;6.278;2024-01-10T11:49:03;2.85;;;2.30;;
51862;SDS011;37900;52.996;6.278;2024-01-10T11:51:32;3.78;;;2.70;;
51862;SDS011;37900;52.996;6.278;2024-01-10T11:54:00;2.70;;;1.95;;
51862;SDS011;37900;52.996;6.278;2024-01-10T11:56:26;6.47;;;2.33;;
51862;SDS011;37900;52.996;6.278;2024-01-10T11:59:06;3.95;;;2.70;;
51862;SDS011;37900;52.996;6.278;2024-01-10T12:01:34;3.40;;;2.63;;
51862;SDS011;37900;52.996;6.278;2024-01-10T12:04:01;4.68;;;2.47;;
51862;SDS011;37900;52.996;6.278;2024-01-10T12:06:29;4.90;;;2.35;;
51862;SDS011;37900;52.996;6.278;2024-01-10T12:08:55;3.28;;;2.40;;
51862;SDS011;37900;52.996;6.278;2024-01-10T12:11:21;5.20;;;2.90;;
51862;SDS011;37900;52.996;6.278;2024-01-10T12:13:47;3.22;;;1.98;;
51862;SDS011;37900;52.996;6.278;2024-01-10T12:16:13;3.08;;;2.08;;
51862;SDS011;37900;52.996;6.278;2024-01-10T12:18:39;3.03;;;2.20;;
51862;SDS011;37900;52.996;6.278;2024-01-10T12:21:05;3.30;;;2.40;;
51862;SDS011;37900;52.996;6.278;2024-01-10T12:23:34;3.15;;;2.08;;
51862;SDS011;37900;52.996;6.278;2024-01-10T12:26:03;2.27;;;1.83;;
51862;SDS011;37900;52.996;6.278;2024-01-10T12:28:34;2.83;;;2.40;;
51862;SDS011;37900;52.996;6.278;2024-01-10T12:31:00;2.22;;;1.80;;
51862;SDS011;37900;52.996;6.278;2024-01-10T12:33:28;2.42;;;1.70;;
51862;SDS011;37900;52.996;6.278;2024-01-10T12:36:04;2.85;;;2.05;;
51862;SDS011;37900;52.996;6.278;2024-01-10T12:38:40;2.90;;;2.10;;
51862;SDS011;37900;52.996;6.278;2024-01-10T12:41:06;3.05;;;2.00;;
51862;SDS011;37900;52.996;6.278;2024-01-10T12:43:36;3.28;;;2.17;;
51862;SDS011;37900;52.996;6.278;2024-01-10T12:46:06;2.22;;;1.80;;
51862;SDS011;37900;52.996;6.278;2024-01-10T12:48:33;4.95;;;2.25;;
51862;SDS011;37900;52.996;6.278;2024-01-10T12:51:12;4.03;;;2.30;;
51862;SDS011;37900;52.996;6.278;2024-01-10T12:53:39;4.00;;;2.30;;
51862;SDS011;37900;52.996;6.278;2024-01-10T12:56:12;3.22;;;2.25;;
51862;SDS011;37900;52.996;6.278;2024-01-10T12:58:39;2.95;;;2.15;;
51862;SDS011;37900;52.996;6.278;2024-01-10T13:01:09;3.08;;;2.03;;
51862;SDS011;37900;52.996;6.278;2024-01-10T13:03:38;3.40;;;1.98;;
51862;SDS011;37900;52.996;6.278;2024-01-10T13:06:05;4.47;;;2.90;;
51862;SDS011;37900;52.996;6.278;2024-01-10T13:08:31;2.65;;;2.10;;
51862;SDS011;37900;52.996;6.278;2024-01-10T13:11:00;3.38;;;2.30;;
51862;SDS011;37900;52.996;6.278;2024-01-10T13:13:35;2.45;;;1.98;;
51862;SDS011;37900;52.996;6.278;2024-01-10T13:16:05;3.75;;;2.15;;
51862;SDS011;37900;52.996;6.278;2024-01-10T13:18:31;4.30;;;2.25;;
51862;SDS011;37900;52.996;6.278;2024-01-10T13:20:57;3.30;;;1.90;;
51862;SDS011;37900;52.996;6.278;2024-01-10T13:23:25;3.72;;;2.17;;
51862;SDS011;37900;52.996;6.278;2024-01-10T13:25:51;2.83;;;2.00;;
51862;SDS011;37900;52.996;6.278;2024-01-10T13:28:19;3.10;;;1.88;;
51862;SDS011;37900;52.996;6.278;2024-01-10T13:30:45;2.65;;;2.08;;
51862;SDS011;37900;52.996;6.278;2024-01-10T13:33:11;4.05;;;2.17;;
51862;SDS011;37900;52.996;6.278;2024-01-10T13:35:37;3.47;;;1.95;;
51862;SDS011;37900;52.996;6.278;2024-01-10T13:38:03;3.30;;;2.03;;
51862;SDS011;37900;52.996;6.278;2024-01-10T13:40:30;2.53;;;1.50;;
51862;SDS011;37900;52.996;6.278;2024-01-10T13:42:57;2.10;;;1.88;;
51862;SDS011;37900;52.996;6.278;2024-01-10T13:45:23;2.63;;;1.90;;
51862;SDS011;37900;52.996;6.278;2024-01-10T13:47:48;3.42;;;2.17;;
51862;SDS011;37900;52.996;6.278;2024-01-10T13:50:14;3.08;;;2.10;;
51862;SDS011;37900;52.996;6.278;2024-01-10T13:52:41;2.65;;;2.00;;
51862;SDS011;37900;52.996;6.278;2024-01-10T13:55:07;2.92;;;1.90;;
51862;SDS011;37900;52.996;6.278;2024-01-10T13:57:36;3.00;;;1.95;;
51862;SDS011;37900;52.996;6.278;2024-01-10T14:00:02;2.25;;;1.75;;
51862;SDS011;37900;52.996;6.278;2024-01-10T14:02:32;2.60;;;1.90;;
51862;SDS011;37900;52.996;6.278;2024-01-10T14:04:58;2.28;;;1.80;;
51862;SDS011;37900;52.996;6.278;2024-01-10T14:07:24;2.78;;;2.20;;
51862;SDS011;37900;52.996;6.278;2024-01-10T14:09:50;3.40;;;2.00;;
51862;SDS011;37900;52.996;6.278;2024-01-10T14:12:19;2.75;;;2.03;;
51862;SDS011;37900;52.996;6.278;2024-01-10T14:14:45;2.92;;;1.80;;
51862;SDS011;37900;52.996;6.278;2024-01-10T14:17:11;2.58;;;1.98;;
51862;SDS011;37900;52.996;6.278;2024-01-10T14:19:37;2.90;;;2.15;;
51862;SDS011;37900;52.996;6.278;2024-01-10T14:22:02;2.75;;;2.10;;
51862;SDS011;37900;52.996;6.278;2024-01-10T14:24:28;2.85;;;2.13;;
51862;SDS011;37900;52.996;6.278;2024-01-10T14:26:55;4.13;;;2.10;;
51862;SDS011;37900;52.996;6.278;2024-01-10T14:29:20;2.63;;;1.85;;
51862;SDS011;37900;52.996;6.278;2024-01-10T14:31:47;2.42;;;1.67;;
51862;SDS011;37900;52.996;6.278;2024-01-10T14:34:14;3.00;;;1.90;;
51862;SDS011;37900;52.996;6.278;2024-01-10T14:36:40;2.40;;;1.60;;
51862;SDS011;37900;52.996;6.278;2024-01-10T14:39:06;2.63;;;2.03;;
51862;SDS011;37900;52.996;6.278;2024-01-10T14:41:32;3.75;;;2.00;;
51862;SDS011;37900;52.996;6.278;2024-01-10T14:44:05;3.20;;;2.45;;
51862;SDS011;37900;52.996;6.278;2024-01-10T14:46:30;2.65;;;1.85;;
51862;SDS011;37900;52.996;6.278;2024-01-10T14:48:56;3.22;;;2.50;;
51862;SDS011;37900;52.996;6.278;2024-01-10T14:51:22;2.88;;;1.98;;
51862;SDS011;37900;52.996;6.278;2024-01-10T14:53:47;3.10;;;2.17;;
51862;SDS011;37900;52.996;6.278;2024-01-10T14:56:13;2.47;;;2.05;;
51862;SDS011;37900;52.996;6.278;2024-01-10T14:58:39;1.95;;;1.73;;
51862;SDS011;37900;52.996;6.278;2024-01-10T15:01:11;2.28;;;1.80;;
51862;SDS011;37900;52.996;6.278;2024-01-10T15:03:37;2.47;;;1.85;;
51862;SDS011;37900;52.996;6.278;2024-01-10T15:06:03;2.40;;;1.88;;
51862;SDS011;37900;52.996;6.278;2024-01-10T15:08:31;3.65;;;2.40;;
51862;SDS011;37900;52.996;6.278;2024-01-10T15:10:59;3.15;;;2.05;;
51862;SDS011;37900;52.996;6.278;2024-01-10T15:13:25;3.15;;;1.88;;
51862;SDS011;37900;52.996;6.278;2024-01-10T15:15:50;3.40;;;2.10;;